createdAt,value
2022-12-22T00:00:02.284Z,23.70
2022-12-22T00:02:48.031Z,24.07
2022-12-22T00:05:35.053Z,22.33
2022-12-22T00:08:21.066Z,24.07
2022-12-22T00:11:08.099Z,23.83
2022-12-22T00:13:54.330Z,22.60
2022-12-22T00:16:40.473Z,22.27
2022-12-22T00:19:31.923Z,23.57
2022-12-22T00:22:20.337Z,24.30
2022-12-22T00:25:05.748Z,23.67
2022-12-22T00:27:52.454Z,22.37
2022-12-22T00:30:45.674Z,23.07
2022-12-22T00:33:35.016Z,23.87
2022-12-22T00:36:21.502Z,24.43
2022-12-22T00:39:06.816Z,22.57
2022-12-22T00:41:52.376Z,24.47
2022-12-22T00:44:38.994Z,22.17
2022-12-22T00:47:24.538Z,23.17
2022-12-22T00:50:09.524Z,22.07
2022-12-22T00:52:55.458Z,23.30
2022-12-22T00:55:48.313Z,23.20
2022-12-22T00:58:37.303Z,22.73
2022-12-22T01:01:24.540Z,22.87
2022-12-22T01:04:09.774Z,23.80
2022-12-22T01:06:55.827Z,23.23
2022-12-22T01:09:41.805Z,22.90
2022-12-22T01:12:31.844Z,23.47
2022-12-22T01:15:16.971Z,24.57
2022-12-22T01:18:03.851Z,24.00
2022-12-22T01:20:50.326Z,22.40
2022-12-22T01:23:35.780Z,24.30
2022-12-22T01:26:21.350Z,23.30
2022-12-22T01:29:06.727Z,22.83
2022-12-22T01:31:52.018Z,22.37
2022-12-22T01:34:38.826Z,21.77
2022-12-22T01:37:24.464Z,22.27
2022-12-22T01:40:09.872Z,22.13
2022-12-22T01:42:56.475Z,23.40
2022-12-22T01:45:44.642Z,23.40
2022-12-22T01:48:31.461Z,23.13
2022-12-22T01:51:21.515Z,23.50
2022-12-22T01:54:07.487Z,23.20
2022-12-22T01:56:52.899Z,22.60
2022-12-22T01:59:37.944Z,24.70
2022-12-22T02:02:25.349Z,22.13
2022-12-22T02:05:12.300Z,22.47
2022-12-22T02:08:14.801Z,24.07
2022-12-22T02:11:27.742Z,22.27
2022-12-22T02:14:29.681Z,22.03
2022-12-22T02:17:24.395Z,22.97
2022-12-22T02:20:32.967Z,21.40
2022-12-22T02:23:29.762Z,21.37
2022-12-22T02:26:20.283Z,22.53
2022-12-22T02:29:08.383Z,21.87
2022-12-22T02:31:55.211Z,22.33
2022-12-22T02:34:40.707Z,23.43
2022-12-22T02:37:33.446Z,22.47
2022-12-22T02:40:24.731Z,22.17
2022-12-22T02:43:21.787Z,23.27
2022-12-22T02:46:20.149Z,22.37
2022-12-22T02:49:11.984Z,22.43
2022-12-22T02:52:07.617Z,21.03
2022-12-22T02:54:53.443Z,22.83
2022-12-22T02:57:39.221Z,21.57
2022-12-22T03:00:26.864Z,21.23
2022-12-22T03:03:13.874Z,20.90
2022-12-22T03:05:59.454Z,21.77
2022-12-22T03:08:45.029Z,20.83
2022-12-22T03:11:30.772Z,20.47
2022-12-22T03:14:16.003Z,19.57
2022-12-22T03:17:01.539Z,19.30
2022-12-22T03:19:48.327Z,19.83
2022-12-22T03:22:33.778Z,18.57
2022-12-22T03:25:19.179Z,19.00
2022-12-22T03:27:47.128Z,20.23
2022-12-22T03:30:15.168Z,19.97
2022-12-22T03:32:43.069Z,18.60
2022-12-22T03:35:12.552Z,19.43
2022-12-22T03:37:40.446Z,19.67
2022-12-22T03:40:09.838Z,19.67
2022-12-22T03:42:55.414Z,19.43
2022-12-22T03:45:40.958Z,19.40
2022-12-22T03:48:08.893Z,17.90
2022-12-22T03:50:38.360Z,18.40
2022-12-22T03:53:06.926Z,16.87
2022-12-22T03:55:34.825Z,17.90
2022-12-22T03:58:02.740Z,17.37
2022-12-22T04:00:30.712Z,18.73
2022-12-22T04:02:59.097Z,18.00
2022-12-22T04:05:27.185Z,19.30
2022-12-22T04:07:56.510Z,18.67
2022-12-22T04:10:42.186Z,17.20
2022-12-22T04:13:10.110Z,18.57
2022-12-22T04:15:38.150Z,18.00
2022-12-22T04:18:06.351Z,17.77
2022-12-22T04:20:34.303Z,17.50
2022-12-22T04:23:04.427Z,17.30
2022-12-22T04:25:32.366Z,18.50
2022-12-22T04:28:00.247Z,18.57
2022-12-22T04:30:28.141Z,18.37
2022-12-22T04:32:56.114Z,17.30
2022-12-22T04:35:24.031Z,17.70
2022-12-22T04:37:52.002Z,18.47
2022-12-22T04:40:21.280Z,16.80
2022-12-22T04:42:49.204Z,17.70
2022-12-22T04:45:17.340Z,18.17
2022-12-22T04:47:45.367Z,17.70
2022-12-22T04:50:13.296Z,18.83
2022-12-22T04:52:41.191Z,17.47
2022-12-22T04:55:10.422Z,17.20
2022-12-22T04:57:41.135Z,17.87
2022-12-22T05:00:10.715Z,17.53
2022-12-22T05:02:38.945Z,17.53
2022-12-22T05:05:07.957Z,16.53
2022-12-22T05:07:36.096Z,17.33
2022-12-22T05:10:04.586Z,16.37
2022-12-22T05:12:49.920Z,17.07
2022-12-22T05:15:19.266Z,14.97
2022-12-22T05:17:47.206Z,16.67
2022-12-22T05:20:15.182Z,17.23
2022-12-22T05:22:43.081Z,16.17
2022-12-22T05:25:11.644Z,16.33
2022-12-22T05:27:39.633Z,16.70
2022-12-22T05:30:08.913Z,16.83
2022-12-22T05:32:38.266Z,17.87
2022-12-22T05:35:07.490Z,16.57
2022-12-22T05:37:35.912Z,16.40
2022-12-22T05:40:04.325Z,16.83
2022-12-22T05:42:37.871Z,17.70
2022-12-22T05:45:08.538Z,15.47
2022-12-22T05:47:38.207Z,16.37
2022-12-22T05:50:07.570Z,16.83
2022-12-22T05:52:35.469Z,16.57
2022-12-22T05:55:03.592Z,15.73
2022-12-22T05:57:31.548Z,16.07
2022-12-22T05:59:59.487Z,16.73
2022-12-22T06:02:27.740Z,16.37
2022-12-22T06:04:57.138Z,16.20
2022-12-22T06:07:25.003Z,15.27
2022-12-22T06:09:52.932Z,15.40
2022-12-22T06:12:20.831Z,16.27
2022-12-22T06:14:48.767Z,16.03
2022-12-22T06:17:16.693Z,16.13
2022-12-22T06:19:44.664Z,16.60
2022-12-22T06:22:13.972Z,15.83
2022-12-22T06:24:42.076Z,17.23
2022-12-22T06:27:11.107Z,16.13
2022-12-22T06:29:39.171Z,17.00
2022-12-22T06:32:07.551Z,16.50
2022-12-22T06:34:35.474Z,16.70
2022-12-22T06:37:03.441Z,16.27
2022-12-22T06:39:32.767Z,16.20
2022-12-22T06:42:29.630Z,16.63
2022-12-22T06:44:57.531Z,17.00
2022-12-22T06:47:25.475Z,16.23
2022-12-22T06:49:53.402Z,16.93
2022-12-22T06:52:21.367Z,15.50
2022-12-22T06:54:50.667Z,15.00
2022-12-22T06:57:18.586Z,15.30
2022-12-22T06:59:49.751Z,16.63
2022-12-22T07:02:20.422Z,16.17
2022-12-22T07:04:48.500Z,16.33
2022-12-22T07:07:16.470Z,15.50
2022-12-22T07:09:44.371Z,15.67
2022-12-22T07:12:14.199Z,16.23
2022-12-22T07:14:42.199Z,15.53
2022-12-22T07:17:10.360Z,15.10
2022-12-22T07:19:38.324Z,15.70
2022-12-22T07:22:06.266Z,16.17
2022-12-22T07:24:34.175Z,15.53
2022-12-22T07:27:02.127Z,15.33
2022-12-22T07:29:31.486Z,15.37
2022-12-22T07:31:59.566Z,15.50
2022-12-22T07:34:27.471Z,15.40
2022-12-22T07:36:55.384Z,14.63
2022-12-22T07:39:23.313Z,14.93
2022-12-22T07:42:08.563Z,15.83
2022-12-22T07:44:37.885Z,13.80
2022-12-22T07:47:06.055Z,14.73
2022-12-22T07:49:51.406Z,13.53
2022-12-22T07:52:19.409Z,14.67
2022-12-22T07:54:47.469Z,13.70
2022-12-22T07:57:15.660Z,14.20
2022-12-22T07:59:44.933Z,13.70
2022-12-22T08:02:13.639Z,13.03
2022-12-22T08:04:41.681Z,13.20
2022-12-22T08:07:09.680Z,12.67
2022-12-22T08:09:37.663Z,12.30
2022-12-22T08:12:06.079Z,13.17
2022-12-22T08:14:34.046Z,11.93
2022-12-22T08:17:03.381Z,12.13
2022-12-22T08:19:32.905Z,12.77
2022-12-22T08:22:01.305Z,11.67
2022-12-22T08:24:29.260Z,12.23
2022-12-22T08:27:00.088Z,11.53
2022-12-22T08:29:32.087Z,11.70
2022-12-22T08:32:01.657Z,11.10
2022-12-22T08:34:31.455Z,10.37
2022-12-22T08:37:01.996Z,10.73
2022-12-22T08:39:34.715Z,11.97
2022-12-22T08:42:05.310Z,10.40
2022-12-22T08:44:33.244Z,10.77
2022-12-22T08:47:01.401Z,9.30
2022-12-22T08:49:30.768Z,8.97
2022-12-22T08:51:58.718Z,8.80
2022-12-22T08:54:26.671Z,8.47
2022-12-22T08:56:54.582Z,8.63
2022-12-22T08:59:22.551Z,8.33
2022-12-22T09:01:51.207Z,8.53
2022-12-22T09:04:21.821Z,9.50
2022-12-22T09:06:53.521Z,9.00
2022-12-22T09:09:23.204Z,8.10
2022-12-22T09:11:51.705Z,8.93
2022-12-22T09:14:19.671Z,9.30
2022-12-22T09:16:48.000Z,7.90
2022-12-22T09:19:15.907Z,7.60
2022-12-22T09:21:45.156Z,7.27
2022-12-22T09:24:15.982Z,7.70
2022-12-22T09:26:44.162Z,8.53
2022-12-22T09:29:15.293Z,7.27
2022-12-22T09:31:43.539Z,8.20
2022-12-22T09:34:17.715Z,8.60
2022-12-22T09:36:46.874Z,7.87
2022-12-22T09:39:17.053Z,8.30
2022-12-22T09:41:48.164Z,8.47
2022-12-22T09:44:23.779Z,7.73
2022-12-22T09:46:53.757Z,6.90
2022-12-22T09:49:22.721Z,7.70
2022-12-22T09:51:54.423Z,6.60
2022-12-22T09:54:24.534Z,5.93
2022-12-22T09:56:52.866Z,6.33
2022-12-22T09:59:22.038Z,5.23
2022-12-22T10:02:11.912Z,4.87
2022-12-22T10:04:54.240Z,5.60
2022-12-22T10:07:31.003Z,5.37
2022-12-22T10:10:05.700Z,4.70
2022-12-22T10:12:33.625Z,4.20
2022-12-22T10:15:01.577Z,4.40
2022-12-22T10:17:32.239Z,4.77
2022-12-22T10:20:21.465Z,4.83
2022-12-22T10:22:51.216Z,4.50
2022-12-22T10:25:45.092Z,4.33
2022-12-22T10:28:23.824Z,4.50
2022-12-22T10:31:10.127Z,4.53
2022-12-22T10:33:45.921Z,3.63
2022-12-22T10:36:15.792Z,4.20
2022-12-22T10:38:57.292Z,3.80
2022-12-22T10:41:29.993Z,3.67
2022-12-22T10:44:00.154Z,4.10
2022-12-22T10:46:36.166Z,4.00
2022-12-22T10:49:18.127Z,4.03
2022-12-22T10:51:48.267Z,4.20
2022-12-22T10:54:42.549Z,3.60
2022-12-22T10:57:29.696Z,3.77
2022-12-22T10:59:59.306Z,4.00
2022-12-22T11:02:34.328Z,3.83
2022-12-22T11:05:05.383Z,4.00
2022-12-22T11:07:35.393Z,3.33
2022-12-22T11:10:03.821Z,3.23
2022-12-22T11:12:46.600Z,3.20
2022-12-22T11:15:24.857Z,2.50
2022-12-22T11:18:03.154Z,2.07
2022-12-22T11:20:39.073Z,1.97
2022-12-22T11:23:15.619Z,2.37
2022-12-22T11:25:56.770Z,2.30
2022-12-22T11:28:50.321Z,2.30
2022-12-22T11:31:39.707Z,1.87
2022-12-22T11:34:21.214Z,1.67
2022-12-22T11:37:03.662Z,1.60
2022-12-22T11:39:40.545Z,1.67
2022-12-22T11:42:24.229Z,1.90
2022-12-22T11:45:07.184Z,1.63
2022-12-22T11:47:43.576Z,2.00
2022-12-22T11:50:59.616Z,2.00
2022-12-22T11:53:33.922Z,1.80
2022-12-22T11:56:14.923Z,2.03
2022-12-22T11:58:55.467Z,1.70
2022-12-22T12:01:49.608Z,1.77
2022-12-22T12:04:45.505Z,2.30
2022-12-22T12:07:26.404Z,1.90
2022-12-22T12:10:04.677Z,1.90
2022-12-22T12:12:44.042Z,1.80
2022-12-22T12:15:25.634Z,2.13
2022-12-22T12:18:14.929Z,2.03
2022-12-22T12:20:53.799Z,1.90
2022-12-22T12:23:38.116Z,1.93
2022-12-22T12:26:13.059Z,2.30
2022-12-22T12:28:54.877Z,2.00
2022-12-22T12:31:29.867Z,1.83
2022-12-22T12:34:02.193Z,1.97
2022-12-22T12:36:40.395Z,1.73
2022-12-22T12:39:17.493Z,1.80
2022-12-22T12:41:57.255Z,1.60
2022-12-22T12:44:28.833Z,1.90
2022-12-22T12:47:05.617Z,1.67
2022-12-22T12:50:25.152Z,1.93
2022-12-22T12:53:18.535Z,1.70
2022-12-22T12:56:03.438Z,2.00
2022-12-22T12:58:58.165Z,1.47
2022-12-22T13:02:00.568Z,1.60
2022-12-22T13:05:02.326Z,1.60
2022-12-22T13:08:07.260Z,2.17
2022-12-22T13:10:38.533Z,1.73
2022-12-22T13:13:06.986Z,1.83
2022-12-22T13:15:37.249Z,1.90
2022-12-22T13:18:10.564Z,2.00
2022-12-22T13:20:39.162Z,1.70
2022-12-22T13:23:14.487Z,1.73
2022-12-22T13:25:49.820Z,1.70
2022-12-22T13:28:19.684Z,2.13
2022-12-22T13:30:49.756Z,1.90
2022-12-22T13:33:21.914Z,2.00
2022-12-22T13:35:58.245Z,2.00
2022-12-22T13:38:29.298Z,1.93
2022-12-22T13:40:59.914Z,2.10
2022-12-22T13:43:29.636Z,2.60
2022-12-22T13:46:00.070Z,2.10
2022-12-22T13:48:35.913Z,1.97
2022-12-22T13:51:14.803Z,2.00
2022-12-22T13:54:07.633Z,2.47
2022-12-22T13:56:40.663Z,2.20
2022-12-22T13:59:23.120Z,2.53
2022-12-22T14:01:52.080Z,2.13
2022-12-22T14:04:20.213Z,2.20
2022-12-22T14:06:48.200Z,2.50
2022-12-22T14:09:18.589Z,2.23
2022-12-22T14:11:52.794Z,2.57
2022-12-22T14:14:25.760Z,2.40
2022-12-22T14:16:56.998Z,2.60
2022-12-22T14:19:26.361Z,1.97
2022-12-22T14:22:03.578Z,2.20
2022-12-22T14:24:38.368Z,2.20
2022-12-22T14:27:17.975Z,2.03
2022-12-22T14:29:46.764Z,2.07
2022-12-22T14:32:35.677Z,2.10
2022-12-22T14:35:03.912Z,2.40
2022-12-22T14:37:33.085Z,2.50
2022-12-22T14:40:01.312Z,2.43
2022-12-22T14:42:32.285Z,2.30
2022-12-22T14:45:00.268Z,2.30
2022-12-22T14:47:28.251Z,2.30
2022-12-22T14:49:59.811Z,2.47
2022-12-22T14:52:37.627Z,2.60
2022-12-22T14:55:07.612Z,2.40
2022-12-22T14:57:40.895Z,2.17
2022-12-22T15:00:30.880Z,2.40
2022-12-22T15:03:00.804Z,2.60
2022-12-22T15:05:30.140Z,2.10
2022-12-22T15:08:08.537Z,2.93
2022-12-22T15:10:41.260Z,2.40
2022-12-22T15:13:16.397Z,3.37
2022-12-22T15:15:44.359Z,3.77
2022-12-22T15:18:15.885Z,3.03
2022-12-22T15:20:43.933Z,2.20
2022-12-22T15:23:14.768Z,2.30
2022-12-22T15:25:42.806Z,1.90
2022-12-22T15:28:12.301Z,2.27
2022-12-22T15:30:40.602Z,1.70
2022-12-22T15:33:13.558Z,2.47
2022-12-22T15:35:42.981Z,1.70
2022-12-22T15:38:14.762Z,1.97
2022-12-22T15:40:42.981Z,1.33
2022-12-22T15:43:36.546Z,2.07
2022-12-22T15:46:00.903Z,1.97
2022-12-22T15:48:33.229Z,1.60
2022-12-22T15:51:03.543Z,1.70
2022-12-22T15:53:33.600Z,1.80
2022-12-22T15:56:02.205Z,1.60
2022-12-22T15:58:36.445Z,1.70
2022-12-22T16:01:04.497Z,1.20
2022-12-22T16:03:32.578Z,1.60
2022-12-22T16:06:00.774Z,1.53
2022-12-22T16:08:31.868Z,1.90
2022-12-22T16:11:00.195Z,2.17
2022-12-22T16:13:29.462Z,2.20
2022-12-22T16:15:59.594Z,1.70
2022-12-22T16:18:27.609Z,1.73
2022-12-22T16:20:56.676Z,1.77
2022-12-22T16:23:26.946Z,2.03
2022-12-22T16:26:02.097Z,2.17
2022-12-22T16:28:30.791Z,2.10
2022-12-22T16:31:01.300Z,2.37
2022-12-22T16:33:29.567Z,1.93
2022-12-22T16:35:57.456Z,2.20
2022-12-22T16:38:25.368Z,2.57
2022-12-22T16:40:54.336Z,2.10
2022-12-22T16:46:17.139Z,2.00
2022-12-22T16:48:47.603Z,2.67
2022-12-22T16:51:19.681Z,2.80
2022-12-22T16:53:47.988Z,2.80
2022-12-22T16:56:20.186Z,3.27
2022-12-22T16:58:48.832Z,3.07
2022-12-22T17:01:33.044Z,2.90
2022-12-22T17:04:05.095Z,2.43
2022-12-22T17:06:33.365Z,3.03
2022-12-22T17:09:03.040Z,3.20
2022-12-22T17:11:32.764Z,2.73
2022-12-22T17:14:05.951Z,2.80
2022-12-22T17:16:35.450Z,3.63
2022-12-22T17:19:03.462Z,3.97
2022-12-22T17:21:31.464Z,3.00
2022-12-22T17:24:04.191Z,2.57
2022-12-22T17:26:35.044Z,2.87
2022-12-22T17:29:03.252Z,2.40
2022-12-22T17:31:31.410Z,2.33
2022-12-22T17:34:00.797Z,2.13
2022-12-22T17:36:35.227Z,2.20
2022-12-22T17:39:04.097Z,2.27
2022-12-22T17:41:32.387Z,2.60
2022-12-22T17:44:01.103Z,2.10
2022-12-22T17:46:29.470Z,2.30
2022-12-22T17:48:57.400Z,2.40
2022-12-22T17:51:29.390Z,2.37
2022-12-22T17:53:59.852Z,2.40
2022-12-22T17:56:29.871Z,2.83
2022-12-22T17:58:57.840Z,3.10
2022-12-22T18:01:28.212Z,3.20
2022-12-22T18:03:57.757Z,3.20
2022-12-22T18:06:32.257Z,2.63
2022-12-22T18:09:01.119Z,2.40
2022-12-22T18:11:29.358Z,2.50
2022-12-22T18:13:58.259Z,2.80
2022-12-22T18:16:26.174Z,2.50
2022-12-22T18:18:54.173Z,2.27
2022-12-22T18:21:23.623Z,2.30
2022-12-22T18:23:53.438Z,2.40
2022-12-22T18:26:23.525Z,2.30
2022-12-22T18:28:52.364Z,2.00
2022-12-22T18:31:20.772Z,2.23
2022-12-22T18:33:49.104Z,2.30
2022-12-22T18:36:22.811Z,1.90
2022-12-22T18:38:52.523Z,2.40
2022-12-22T18:41:24.392Z,2.20
2022-12-22T18:43:52.564Z,2.27
2022-12-22T18:46:21.221Z,2.70
2022-12-22T18:48:49.747Z,2.10
2022-12-22T18:51:22.247Z,3.23
2022-12-22T18:53:53.682Z,3.00
2022-12-22T18:56:21.801Z,3.10
2022-12-22T18:58:50.058Z,3.30
2022-12-22T19:01:21.661Z,3.33
2022-12-22T19:03:51.084Z,3.40
2022-12-22T19:06:21.463Z,3.00
2022-12-22T19:08:49.751Z,3.77
2022-12-22T19:11:24.885Z,3.83
2022-12-22T19:13:53.795Z,3.80
2022-12-22T19:16:27.015Z,3.50
2022-12-22T19:18:57.135Z,3.20
2022-12-22T19:21:25.045Z,4.33
2022-12-22T19:23:53.080Z,3.73
2022-12-22T19:26:24.309Z,3.67
2022-12-22T19:28:55.207Z,4.00
2022-12-22T19:31:25.885Z,4.00
2022-12-22T19:33:54.718Z,3.90
2022-12-22T19:36:25.663Z,4.37
2022-12-22T19:39:02.544Z,3.50
2022-12-22T19:41:39.727Z,2.93
2022-12-22T19:44:17.326Z,2.70
2022-12-22T19:46:45.695Z,2.43
2022-12-22T19:49:16.809Z,2.80
2022-12-22T19:51:44.843Z,2.90
2022-12-22T19:54:12.896Z,2.70
2022-12-22T19:56:43.431Z,2.60
2022-12-22T19:59:28.089Z,3.20
2022-12-22T20:01:58.222Z,2.83
2022-12-22T20:04:26.592Z,3.10
2022-12-22T20:06:54.624Z,2.80
2022-12-22T20:09:22.554Z,3.20
2022-12-22T20:11:51.947Z,2.90
2022-12-22T20:14:20.550Z,2.80
2022-12-22T20:16:48.560Z,3.53
2022-12-22T20:19:16.976Z,3.27
2022-12-22T20:21:45.452Z,2.70
2022-12-22T20:24:21.998Z,2.70
2022-12-22T20:26:54.474Z,2.97
2022-12-22T20:29:25.100Z,3.40
2022-12-22T20:31:53.226Z,3.10
2022-12-22T20:34:21.272Z,2.93
2022-12-22T20:36:49.221Z,3.10
2022-12-22T20:39:20.429Z,3.40
2022-12-22T20:41:52.943Z,3.50
2022-12-22T20:44:23.599Z,3.43
2022-12-22T20:46:51.657Z,3.40
2022-12-22T20:49:19.573Z,3.80
2022-12-22T20:51:47.702Z,3.20
2022-12-22T20:54:16.095Z,4.40
2022-12-22T20:56:45.424Z,4.17
2022-12-22T20:59:16.416Z,3.67
2022-12-22T21:01:46.736Z,3.20
2022-12-22T21:04:15.185Z,2.80
2022-12-22T21:06:47.564Z,2.57
2022-12-22T21:09:16.181Z,3.57
2022-12-22T21:11:44.477Z,3.60
2022-12-22T21:14:13.699Z,2.80
2022-12-22T21:16:42.558Z,3.20
2022-12-22T21:19:17.992Z,3.77
2022-12-22T21:21:46.029Z,9.17
2022-12-22T21:24:13.946Z,8.83
2022-12-22T21:26:45.524Z,6.43
2022-12-22T21:29:17.542Z,4.90
2022-12-22T21:31:45.843Z,4.77
2022-12-22T21:34:15.180Z,5.63
2022-12-22T21:36:45.511Z,9.50
2022-12-22T21:39:23.813Z,6.90
2022-12-22T21:42:05.159Z,8.10
2022-12-22T21:44:35.253Z,7.07
2022-12-22T21:47:04.023Z,6.97
2022-12-22T21:49:34.643Z,6.50
2022-12-22T21:52:02.561Z,5.90
2022-12-22T21:54:30.522Z,5.23
2022-12-22T21:56:58.548Z,5.77
2022-12-22T21:59:26.504Z,5.23
2022-12-22T22:01:55.701Z,5.20
2022-12-22T22:04:24.282Z,3.83
2022-12-22T22:06:53.682Z,4.23
2022-12-22T22:09:21.586Z,3.83
2022-12-22T22:12:07.094Z,3.80
2022-12-22T22:14:35.046Z,3.50
2022-12-22T22:17:03.000Z,3.80
2022-12-22T22:19:31.019Z,4.47
2022-12-22T22:22:00.300Z,3.70
2022-12-22T22:24:28.516Z,4.37
2022-12-22T22:26:56.600Z,4.00
2022-12-22T22:29:24.543Z,4.30
2022-12-22T22:31:52.471Z,4.53
2022-12-22T22:34:20.448Z,4.57
2022-12-22T22:36:48.389Z,4.07
2022-12-22T22:39:17.692Z,4.07
2022-12-22T22:41:45.619Z,3.93
2022-12-22T22:44:13.669Z,3.90
2022-12-22T22:46:41.830Z,4.73
2022-12-22T22:49:10.097Z,4.30
2022-12-22T22:51:38.062Z,4.20
2022-12-22T22:54:06.066Z,4.23
2022-12-22T22:56:35.490Z,4.30
2022-12-22T22:59:03.855Z,4.17
2022-12-22T23:01:32.197Z,3.73
2022-12-22T23:04:00.444Z,3.83
2022-12-22T23:06:28.482Z,3.80
2022-12-22T23:08:56.401Z,4.13
2022-12-22T23:11:24.389Z,4.40
2022-12-22T23:13:54.867Z,4.10
2022-12-22T23:16:24.419Z,4.60
2022-12-22T23:18:54.033Z,3.60
2022-12-22T23:21:22.914Z,4.70
2022-12-22T23:23:54.646Z,4.30
2022-12-22T23:26:22.693Z,4.27
2022-12-22T23:28:50.595Z,4.00
2022-12-22T23:31:20.107Z,4.33
2022-12-22T23:33:48.171Z,4.13
2022-12-22T23:36:16.210Z,4.10
2022-12-22T23:38:44.263Z,4.27
2022-12-22T23:41:14.145Z,4.33
2022-12-22T23:43:42.337Z,4.67
2022-12-22T23:46:12.045Z,4.87
2022-12-22T23:48:41.611Z,4.67
2022-12-22T23:51:11.022Z,4.77
2022-12-22T23:53:39.432Z,5.20
2022-12-22T23:56:07.847Z,4.40
2022-12-22T23:58:36.018Z,4.47
